tititudorancea.com
Station Historical Data
Daily Summary for June 2, 2018 Units:  Metric    English   Both
« Previous Day
Next Day »
Daily Weekly Monthly Yearly Custom
  High: Low: Average:
Temperature: -17.8 °C 0.5 °C 8.1 °C
Dew Point: -17.8 °C -0.4 °C 4.4 °C
Humidity: Humidity % 46 % 79 %
Wind Speed: 0 km/h 0 km/h 3.9 km/h
Wind Gust: 0 km/h - -
Wind:- - SSE
Pressure: 0 hPa 1024.9 hPa -
Precipitation: 0 mm    
Historical Graphs
 
 
Ararat weather Find more about Weather in Ararat, AU


 



 


Tabular Data for June 2, 2018
Time Temperature Dew Point Pressure Wind Wind Speed Wind Gust Humidity Rainfall Rate (Hourly)
-17.8 °C -17.8 °C 0 hPa Calm     Humidity % 0 mm
00:04 3.2 °C 1.4 °C 1027.3 hPa Calm     88 % 0 mm
00:09 3 °C 1.2 °C 1027.3 hPa South 3.7 km/h   88 % 0 mm
00:14 2.8 °C 1.1 °C 1027.3 hPa Calm     88 % 0 mm
00:19 2.7 °C 0.9 °C 1027.3 hPa Calm     88 % 0 mm
00:24 2.6 °C 0.8 °C 1027.3 hPa Calm     88 % 0 mm
00:29 2.6 °C 0.9 °C 1027.3 hPa Calm     89 % 0 mm
00:34 2.6 °C 1 °C 1027.3 hPa Calm     89 % 0 mm
00:39 2.6 °C 1.1 °C 1027.3 hPa Calm     90 % 0 mm
00:44 2.7 °C 1.2 °C 1027.3 hPa Calm     90 % 0 mm
00:49 2.6 °C 1.1 °C 1027.3 hPa Calm     90 % 0 mm
00:54 2.5 °C 1 °C 1027.3 hPa Calm     90 % 0 mm
00:59 2.4 °C 0.9 °C 1027.3 hPa Calm     90 % 0 mm
01:04 2.4 °C 0.9 °C 1027.3 hPa Calm     90 % 0 mm
01:09 2.4 °C 1.1 °C 1027.3 hPa Calm     91 % 0 mm
01:14 2.3 °C 0.8 °C 1027.3 hPa Calm     90 % 0 mm
01:19 2.2 °C 0.7 °C 1027.3 hPa Calm     90 % 0 mm
01:24 2.1 °C 0.8 °C 1027 hPa Calm     91 % 0 mm
01:29 2.1 °C 0.7 °C 1027 hPa Calm     91 % 0 mm
01:34 2.1 °C 0.8 °C 1027 hPa Calm     91 % 0 mm
01:39 2.2 °C 0.8 °C 1027 hPa Calm     91 % 0 mm
01:44 2.2 °C 1.1 °C 1027 hPa Calm     92 % 0 mm
01:49 2.3 °C 1.1 °C 1027 hPa Calm     92 % 0 mm
01:54 2.3 °C 1.2 °C 1027 hPa Calm     92 % 0 mm
01:59 2.3 °C 1.1 °C 1027 hPa Calm     92 % 0 mm
02:04 2.2 °C 0.9 °C 1027 hPa Calm     91 % 0 mm
02:09 2.1 °C 0.9 °C 1027 hPa Calm     92 % 0 mm
02:14 2.1 °C 0.9 °C 1027 hPa Calm     92 % 0 mm
02:19 2.2 °C 1 °C 1027 hPa South 3.7 km/h 0.6 km/h 92 % 0 mm
02:24 2.2 °C 1 °C 1027 hPa Calm     92 % 0 mm
02:29 2.2 °C 1 °C 1027 hPa Calm     92 % 0 mm
02:34 2.1 °C 0.9 °C 1027 hPa Calm     92 % 0 mm
02:39 2 °C 0.8 °C 1026.6 hPa Calm     92 % 0 mm
02:44 1.9 °C 0.8 °C 1026.6 hPa Calm     92 % 0 mm
02:49 1.9 °C 0.7 °C 1026.6 hPa Calm     92 % 0 mm
02:51 1.8 °C 0.7 °C 1026.6 hPa Calm     92 % 0 mm
02:54 1.8 °C 0.7 °C 1026.6 hPa Calm     92 % 0 mm
02:59 1.9 °C 0.9 °C 1026.6 hPa Calm     93 % 0 mm
03:04 1.9 °C 0.9 °C 1026.6 hPa Calm     93 % 0 mm
03:09 1.9 °C 0.7 °C 1026.6 hPa Calm     92 % 0 mm
03:14 1.9 °C 0.9 °C 1026.6 hPa Calm     93 % 0 mm
03:19 1.9 °C 0.9 °C 1026.6 hPa Calm     93 % 0 mm
03:24 1.8 °C 0.8 °C 1026.6 hPa Calm     93 % 0 mm
03:29 1.8 °C 0.6 °C 1026.6 hPa Calm     92 % 0 mm
03:34 1.8 °C 0.6 °C 1026.6 hPa Calm     92 % 0 mm
03:39 1.7 °C 0.7 °C 1026.6 hPa Calm     93 % 0 mm
03:44 1.8 °C 0.8 °C 1026.6 hPa Calm     93 % 0 mm
03:49 1.8 °C 0.8 °C 1026.6 hPa Calm     93 % 0 mm
03:54 1.8 °C 0.8 °C 1026.6 hPa Calm     93 % 0 mm
03:59 1.8 °C 0.8 °C 1026.6 hPa Calm     93 % 0 mm
04:04 1.8 °C 0.8 °C 1026.6 hPa Calm     93 % 0 mm
04:09 1.8 °C 0.8 °C 1026.6 hPa Calm     93 % 0 mm
04:14 1.8 °C 0.8 °C 1026.6 hPa Calm     93 % 0 mm
04:19 1.7 °C 0.7 °C 1026.6 hPa Calm     93 % 0 mm
04:24 1.7 °C 0.7 °C 1026.6 hPa Calm     93 % 0 mm
04:29 1.6 °C 0.6 °C 1026.6 hPa Calm     93 % 0 mm
04:34 1.6 °C 0.6 °C 1026.6 hPa Calm     93 % 0 mm
04:39 1.6 °C 0.6 °C 1026.6 hPa Calm     93 % 0 mm
04:44 1.5 °C 0.5 °C 1026.6 hPa Calm     93 % 0 mm
04:49 1.5 °C 0.5 °C 1026.6 hPa Calm     93 % 0 mm
04:54 1.4 °C 0.4 °C 1026.6 hPa Calm     93 % 0 mm
04:59 1.4 °C 0.4 °C 1026.6 hPa Calm     93 % 0 mm
05:04 1.4 °C 0.4 °C 1026.6 hPa Calm     93 % 0 mm
05:09 1.5 °C 0.7 °C 1026.6 hPa Calm     94 % 0 mm
05:14 1.5 °C 0.5 °C 1026.6 hPa Calm     93 % 0 mm
05:19 1.4 °C 0.4 °C 1026.6 hPa Calm     93 % 0 mm
05:24 1.4 °C 0.4 °C 1026.6 hPa Calm     93 % 0 mm
05:29 1.3 °C 0.3 °C 1026.6 hPa Calm     93 % 0 mm
05:34 1.3 °C 0.3 °C 1026.6 hPa Calm     93 % 0 mm
05:39 1.4 °C 0.4 °C 1026.6 hPa Calm     93 % 0 mm
05:44 1.4 °C 0.6 °C 1026.6 hPa Calm     94 % 0 mm
05:49 1.5 °C 0.5 °C 1026.6 hPa Calm     93 % 0 mm
05:54 1.5 °C 0.7 °C 1026.6 hPa Calm     94 % 0 mm
05:59 1.4 °C 0.4 °C 1026.6 hPa Calm     93 % 0 mm
06:04 1.3 °C 0.3 °C 1026.6 hPa Calm     93 % 0 mm
06:09 1.3 °C 0.3 °C 1026.6 hPa Calm     93 % 0 mm
06:14 1.3 °C 0.5 °C 1026.6 hPa Calm     94 % 0 mm
06:19 1.3 °C 0.3 °C 1026.6 hPa Calm     93 % 0 mm
06:24 1.2 °C 0.2 °C 1026.6 hPa Calm     93 % 0 mm
06:29 1.2 °C 0.3 °C 1026.6 hPa Calm     94 % 0 mm
06:34 1.2 °C 0.4 °C 1026.6 hPa Calm     94 % 0 mm
06:39 1.1 °C 0.1 °C 1026.6 hPa Calm     93 % 0 mm
06:44 1.1 °C 0.1 °C 1026.6 hPa Calm     93 % 0 mm
06:49 1 °C 0.2 °C 1026.6 hPa Calm     94 % 0 mm
06:54 1 °C 0.2 °C 1027 hPa Calm     94 % 0 mm
06:59 0.9 °C 0.1 °C 1027 hPa Calm     94 % 0 mm
07:04 0.8 °C 0 °C 1027 hPa Calm     94 % 0 mm
07:09 0.8 °C -0.2 °C 1027 hPa Calm     93 % 0 mm
07:14 0.7 °C -0.1 °C 1027 hPa Calm     94 % 0 mm
07:19 0.7 °C -0.1 °C 1027 hPa Calm     94 % 0 mm
07:24 0.6 °C -0.4 °C 1027 hPa Calm     93 % 0 mm
07:29 0.6 °C -0.3 °C 1027 hPa Calm     94 % 0 mm
07:34 0.5 °C -0.3 °C 1027 hPa Calm     94 % 0 mm
07:39 0.6 °C -0.3 °C 1027 hPa Calm     94 % 0 mm
07:44 0.6 °C -0.3 °C 1027 hPa Calm     94 % 0 mm
07:49 0.5 °C -0.3 °C 1027 hPa Calm     94 % 0 mm
07:54 0.5 °C -0.3 °C 1027 hPa Calm     94 % 0 mm
07:59 0.5 °C -0.3 °C 1027.3 hPa Calm     94 % 0 mm
08:04 0.6 °C -0.3 °C 1027.3 hPa Calm     94 % 0 mm
08:09 0.6 °C -0.2 °C 1027.3 hPa Calm     94 % 0 mm
08:14 0.7 °C -0.1 °C 1027.3 hPa Calm     94 % 0 mm
08:19 1 °C 0.3 °C 1027.3 hPa Calm     95 % 0 mm
08:24 1.3 °C 0.6 °C 1027.3 hPa Calm     95 % 0 mm
08:29 1.6 °C 0.9 °C 1027.3 hPa Calm     95 % 0 mm
08:34 2.1 °C 1.6 °C 1027.3 hPa Calm     96 % 0 mm
08:39 2.7 °C 2.1 °C 1027.3 hPa Calm     96 % 0 mm
08:44 3.1 °C 2.6 °C 1027.3 hPa Calm     96 % 0 mm
08:49 3.5 °C 2.9 °C 1027.7 hPa Calm     96 % 0 mm
08:54 3.8 °C 3.1 °C 1027.7 hPa Calm     95 % 0 mm
08:59 4.2 °C 3.7 °C 1027.7 hPa Calm     96 % 0 mm
09:04 4.8 °C 4.2 °C 1027.7 hPa Calm     96 % 0 mm
09:09 5.3 °C 4.7 °C 1027.7 hPa Calm     96 % 0 mm
09:14 5.2 °C 4.3 °C 1027.7 hPa Calm     94 % 0 mm
09:19 5.2 °C 4.3 °C 1027.7 hPa Calm     94 % 0 mm
09:24 5.6 °C 4.9 °C 1027.7 hPa Calm     95 % 0 mm
09:29 6.4 °C 5.8 °C 1027.7 hPa Calm     96 % 0 mm
09:34 7.1 °C 6.4 °C 1027.7 hPa Calm     95 % 0 mm
09:39 7.7 °C 6.7 °C 1027.7 hPa South 5.6 km/h 3.4 km/h 93 % 0 mm
09:44 8.1 °C 6.7 °C 1027.7 hPa South 3.2 km/h 2.9 km/h 91 % 0 mm
09:49 8.4 °C 6.7 °C 1027.7 hPa South 1.9 km/h   89 % 0 mm
09:54 8.7 °C 6.5 °C 1027.7 hPa Calm     86 % 0 mm
09:59 9.1 °C 6.6 °C 1027.7 hPa South 3.7 km/h 0.8 km/h 84 % 0 mm
10:04 9.4 °C 6.5 °C 1027.7 hPa South 1.9 km/h 1 km/h 82 % 0 mm
10:09 10.1 °C 6.8 °C 1027.7 hPa South 3.7 km/h 1.3 km/h 80 % 0 mm
10:14 10.3 °C 6.1 °C 1027.7 hPa South 1.9 km/h 0.5 km/h 75 % 0 mm
10:19 10.2 °C 5.8 °C 1027.7 hPa South 1.9 km/h 1.9 km/h 74 % 0 mm
10:24 10.7 °C 6.3 °C 1027.3 hPa South 3.7 km/h 2.6 km/h 74 % 0 mm
10:29 11.4 °C 6.3 °C 1027.7 hPa South 3.7 km/h 2.7 km/h 71 % 0 mm
10:34 11.8 °C 6.7 °C 1027.3 hPa South 3.2 km/h 1.4 km/h 71 % 0 mm
10:39 12.3 °C 6.6 °C 1027.3 hPa South 3.7 km/h 2.3 km/h 68 % 0 mm
10:44 12.6 °C 6.7 °C 1027.3 hPa South 5.6 km/h 1.3 km/h 67 % 0 mm
10:49 12.7 °C 6.5 °C 1027.7 hPa South 3.7 km/h 2.6 km/h 66 % 0 mm
10:54 13.2 °C 6.7 °C 1027.3 hPa South 5.6 km/h 1.8 km/h 65 % 0 mm
10:59 13.3 °C 6.6 °C 1027.7 hPa South 5.6 km/h 4.2 km/h 64 % 0 mm
11:04 13.4 °C 6.7 °C 1027.7 hPa South 5.6 km/h 1.8 km/h 64 % 0 mm
11:09 13.2 °C 6.5 °C 1027.7 hPa South 5.6 km/h 2.3 km/h 64 % 0 mm
11:14 13 °C 6.1 °C 1027.7 hPa South 7.4 km/h 5.5 km/h 63 % 0 mm
11:19 13.1 °C 5.9 °C 1027.7 hPa South 9.3 km/h 6 km/h 62 % 0 mm
11:24 13.1 °C 6.2 °C 1027.3 hPa South 8 km/h 5.3 km/h 63 % 0 mm
11:29 13.1 °C 6.4 °C 1027.3 hPa South 7.4 km/h 3.4 km/h 64 % 0 mm
11:34 13.1 °C 6.7 °C 1027.3 hPa South 7.4 km/h 7.4 km/h 65 % 0 mm
11:39 13.2 °C 6.9 °C 1027.3 hPa South 6.4 km/h 6.3 km/h 66 % 0 mm
11:44 13.4 °C 6.9 °C 1027.3 hPa South 6.4 km/h 3.9 km/h 65 % 0 mm
11:49 13.4 °C 7 °C 1027 hPa South 5.6 km/h 3.2 km/h 65 % 0 mm
11:54 13.9 °C 7.6 °C 1027 hPa South 6.4 km/h 5.5 km/h 66 % 0 mm
11:59 14.3 °C 7.6 °C 1027 hPa South 5.6 km/h 4.5 km/h 64 % 0 mm
12:04 14.4 °C 7.2 °C 1027 hPa South 7.4 km/h 2.9 km/h 62 % 0 mm
12:09 14.2 °C 7.3 °C 1026.6 hPa South 7.4 km/h 5 km/h 63 % 0 mm
12:14 14.3 °C 6.9 °C 1026.6 hPa South 5.6 km/h 3.9 km/h 61 % 0 mm
12:19 14.3 °C 6.9 °C 1026.6 hPa South 7.4 km/h 4.7 km/h 61 % 0 mm
12:24 14.4 °C 7 °C 1026.6 hPa South 6.4 km/h 6 km/h 61 % 0 mm
12:29 15.1 °C 7.6 °C 1026.6 hPa South 3.2 km/h 2.6 km/h 61 % 0 mm
12:34 15.5 °C 7.5 °C 1026.3 hPa South 7.4 km/h 4.8 km/h 59 % 0 mm
12:39 15.4 °C 7.2 °C 1026.3 hPa Calm     58 % 0 mm
12:44 15.8 °C 7.3 °C 1026.3 hPa Calm     57 % 0 mm
12:49 16.4 °C 6.8 °C 1026.3 hPa Calm     53 % 0 mm
12:54 16.7 °C 6.8 °C 1026 hPa Calm     52 % 0 mm
12:59 16.7 °C 6.8 °C 1026 hPa South 5.6 km/h 0.2 km/h 52 % 0 mm
13:04 16.8 °C 7.2 °C 1026 hPa South 3.7 km/h   53 % 0 mm
13:09 17 °C 7.6 °C 1026 hPa North 3.2 km/h 1.4 km/h 54 % 0 mm
13:14 16.6 °C 7.2 °C 1026 hPa South 5.6 km/h 4 km/h 54 % 0 mm
13:19 16.4 °C 7.6 °C 1025.6 hPa North 3.7 km/h 0.6 km/h 56 % 0 mm
13:24 16.8 °C 7.4 °C 1025.6 hPa South 8 km/h 6.1 km/h 54 % 0 mm
13:29 16.9 °C 7.6 °C 1025.6 hPa South 3.7 km/h 2.6 km/h 54 % 0 mm
13:34 16.9 °C 7.5 °C 1025.6 hPa South 3.7 km/h   54 % 0 mm
13:39 17.1 °C 7.2 °C 1025.6 hPa South 5.6 km/h 1.9 km/h 52 % 0 mm
13:44 17.5 °C 6.9 °C 1025.6 hPa South 5.6 km/h 3.2 km/h 50 % 0 mm
13:49 17.6 °C 7.3 °C 1025.3 hPa Calm   0.2 km/h 51 % 0 mm
13:54 17.6 °C 7.3 °C 1025.3 hPa South 5.6 km/h 1.4 km/h 51 % 0 mm
13:59 17.6 °C 7.6 °C 1025.3 hPa South 3.7 km/h   52 % 0 mm
14:04 17.9 °C 7.4 °C 1025.3 hPa South 1.9 km/h 2.3 km/h 50 % 0 mm
14:09 18.2 °C 7.6 °C 1025.3 hPa South 3.7 km/h 1.4 km/h 50 % 0 mm
14:14 18.2 °C 6.3 °C 1025.3 hPa South 11.1 km/h 7.1 km/h 46 % 0 mm
14:19 17.8 °C 6.3 °C 1025.3 hPa South 5.6 km/h 4.7 km/h 47 % 0 mm
14:24 17.5 °C 6.1 °C 1024.9 hPa South 5.6 km/h 4.3 km/h 47 % 0 mm
14:29 17.3 °C 6.5 °C 1024.9 hPa South 8 km/h 3.5 km/h 49 % 0 mm
14:34 17.3 °C 7.1 °C 1024.9 hPa South 9.7 km/h 7.4 km/h 51 % 0 mm
14:39 17.2 °C 6.7 °C 1024.9 hPa SSE 14.5 km/h 10.6 km/h 50 % 0 mm
14:44 16.9 °C 7 °C 1024.9 hPa SSE 11.1 km/h 9 km/h 52 % 0 mm
14:49 16.9 °C 7.2 °C 1025.3 hPa SE 13 km/h 6.9 km/h 53 % 0 mm
14:54 16.8 °C 6.8 °C 1024.9 hPa SE 14.8 km/h 10.5 km/h 52 % 0 mm
14:59 16.5 °C 6.9 °C 1025.3 hPa SE 11.1 km/h 7.6 km/h 53 % 0 mm
15:04 16.4 °C 6.8 °C 1025.3 hPa SE 14.8 km/h 10 km/h 53 % 0 mm
15:09 16.4 °C 6.8 °C 1025.3 hPa SE 11.1 km/h 10.5 km/h 53 % 0 mm
15:14 16.4 °C 7.3 °C 1025.3 hPa SE 13 km/h 11.3 km/h 55 % 0 mm
15:19 16.4 °C 7.3 °C 1025.3 hPa SE 13 km/h 7.6 km/h 55 % 0 mm
15:24 16.4 °C 7.3 °C 1025.3 hPa SE 13 km/h 6.9 km/h 55 % 0 mm
15:29 16.3 °C 7.8 °C 1025.3 hPa SE 9.7 km/h 2.7 km/h 57 % 0 mm
15:34 16.3 °C 7.7 °C 1025.3 hPa SE 9.3 km/h 5 km/h 57 % 0 mm
15:39 16.2 °C 7.6 °C 1025.3 hPa SE 13 km/h 8.2 km/h 57 % 0 mm
15:44 15.8 °C 7.8 °C 1025.3 hPa SE 7.4 km/h 6.4 km/h 59 % 0 mm
15:49 15.7 °C 7.7 °C 1025.3 hPa SE 5.6 km/h 4.5 km/h 59 % 0 mm
15:54 15.7 °C 8.2 °C 1025.3 hPa SE 6.4 km/h 4.7 km/h 61 % 0 mm
15:59 15.6 °C 8.1 °C 1025.3 hPa SE 9.3 km/h 4.2 km/h 61 % 0 mm
16:04 15.4 °C 8.2 °C 1025.3 hPa SE 7.4 km/h 4.8 km/h 62 % 0 mm
16:09 15.2 °C 8 °C 1025.3 hPa SE 5.6 km/h 5.6 km/h 62 % 0 mm
16:14 15.1 °C 7.6 °C 1025.6 hPa SE 9.3 km/h 4.8 km/h 61 % 0 mm
16:19 15 °C 7.6 °C 1025.3 hPa SE 8 km/h 6.1 km/h 61 % 0 mm
16:24 14.9 °C 7.5 °C 1025.6 hPa SE 9.7 km/h 5.1 km/h 61 % 0 mm
16:29 14.8 °C 7.6 °C 1025.6 hPa SE 7.4 km/h 4.7 km/h 62 % 0 mm
16:34 14.7 °C 7.7 °C 1025.6 hPa SE 9.3 km/h 5.5 km/h 63 % 0 mm
16:39 14.5 °C 8 °C 1025.6 hPa SE 8 km/h 7.9 km/h 65 % 0 mm
16:44 14.3 °C 8.1 °C 1025.6 hPa SE 11.1 km/h 8.2 km/h 66 % 0 mm
16:49 14.2 °C 7.9 °C 1025.6 hPa SE 7.4 km/h 3.4 km/h 66 % 0 mm
16:54 14.1 °C 8 °C 1025.6 hPa SE 7.4 km/h 3.5 km/h 67 % 0 mm
16:59 13.9 °C 8.1 °C 1025.6 hPa SE 7.4 km/h 4.7 km/h 68 % 0 mm
17:04 13.8 °C 7.9 °C 1025.6 hPa SE 9.3 km/h 5.1 km/h 68 % 0 mm
17:09 13.6 °C 7.8 °C 1025.6 hPa SE 11.3 km/h 7.7 km/h 68 % 0 mm
17:14 13.4 °C 7.8 °C 1025.6 hPa SE 9.3 km/h 6.9 km/h 69 % 0 mm
17:19 13.2 °C 7.9 °C 1025.6 hPa SE 9.3 km/h 8 km/h 70 % 0 mm
17:24 13.1 °C 7.8 °C 1025.6 hPa SE 7.4 km/h 5.1 km/h 70 % 0 mm
17:29 12.9 °C 7.8 °C 1025.6 hPa SE 11.1 km/h 7.6 km/h 71 % 0 mm
17:34 12.8 °C 7.7 °C 1025.6 hPa SE 9.3 km/h 5.3 km/h 71 % 0 mm
17:39 12.7 °C 7.8 °C 1025.6 hPa SE 7.4 km/h 6.4 km/h 72 % 0 mm
17:44 12.6 °C 7.7 °C 1025.6 hPa SE 9.3 km/h 6.3 km/h 72 % 0 mm
17:49 12.4 °C 7.7 °C 1025.6 hPa SE 7.4 km/h 4 km/h 73 % 0 mm
17:54 12.3 °C 7.6 °C 1025.6 hPa SE 5.6 km/h 5.3 km/h 73 % 0 mm
17:59 12.1 °C 7.4 °C 1025.6 hPa SE 9.3 km/h 6.3 km/h 73 % 0 mm
18:04 11.9 °C 7.4 °C 1025.6 hPa SE 6.4 km/h 5.1 km/h 74 % 0 mm
18:09 11.8 °C 7.3 °C 1025.6 hPa SE 6.4 km/h 3.4 km/h 74 % 0 mm
18:14 11.7 °C 7.2 °C 1025.6 hPa SE 3.7 km/h 0.8 km/h 74 % 0 mm
18:19 11.6 °C 7.1 °C 1025.6 hPa SE 7.4 km/h 3.2 km/h 74 % 0 mm
18:24 11.4 °C 7.2 °C 1026 hPa SE 6.4 km/h 3.5 km/h 75 % 0 mm
18:29 11.3 °C 7.1 °C 1026 hPa SE 5.6 km/h 3.4 km/h 75 % 0 mm
18:34 11.3 °C 7.2 °C 1026 hPa SE 8 km/h 2.6 km/h 76 % 0 mm
18:39 11.3 °C 7.2 °C 1026 hPa SE 6.4 km/h 5.5 km/h 76 % 0 mm
18:44 11.2 °C 7.2 °C 1026 hPa SE 5.6 km/h 1.9 km/h 76 % 0 mm
18:49 11.2 °C 7.3 °C 1026 hPa SE 7.4 km/h 2.7 km/h 77 % 0 mm
18:54 11.1 °C 7.2 °C 1026 hPa SE 11.1 km/h 3.1 km/h 77 % 0 mm
18:59 11 °C 7.1 °C 1026 hPa SE 5.6 km/h 1.9 km/h 77 % 0 mm
19:04 10.9 °C 7.2 °C 1026 hPa SE 7.4 km/h 3.9 km/h 78 % 0 mm
19:09 10.8 °C 7.1 °C 1026 hPa SE 5.6 km/h 3.9 km/h 78 % 0 mm
19:14 10.7 °C 7.2 °C 1026 hPa SE 7.4 km/h 4.2 km/h 79 % 0 mm
19:19 10.5 °C 7 °C 1026 hPa SE 5.6 km/h 0.5 km/h 79 % 0 mm
19:24 10.3 °C 6.8 °C 1026 hPa SE 1.9 km/h   79 % 0 mm
19:29 10.1 °C 6.6 °C 1026 hPa Calm     79 % 0 mm
19:34 9.9 °C 6.7 °C 1026 hPa SE 3.7 km/h 2.1 km/h 80 % 0 mm
19:39 9.8 °C 6.7 °C 1026 hPa SE 3.7 km/h 0.6 km/h 81 % 0 mm
19:44 9.6 °C 6.5 °C 1026 hPa SE 5.6 km/h 2.7 km/h 81 % 0 mm
19:49 9.6 °C 6.6 °C 1026 hPa SE 3.2 km/h 2.1 km/h 82 % 0 mm
19:54 9.5 °C 6.6 °C 1026 hPa SE 5.6 km/h 0.5 km/h 82 % 0 mm
19:59 9.4 °C 6.4 °C 1026 hPa North 5.6 km/h 2.4 km/h 82 % 0 mm
20:04 9.3 °C 6.4 °C 1026 hPa SE 3.7 km/h 1.4 km/h 82 % 0 mm
20:09 9.2 °C 6.3 °C 1026 hPa Calm   0.2 km/h 82 % 0 mm
20:14 9.1 °C 6.2 °C 1026 hPa SE 3.7 km/h 1.1 km/h 82 % 0 mm
20:19 9.1 °C 6.2 °C 1026 hPa SE 3.7 km/h 2.6 km/h 82 % 0 mm
20:24 8.9 °C 6.2 °C 1026 hPa SE 3.7 km/h 2.3 km/h 83 % 0 mm
20:29 8.9 °C 6.9 °C 1026 hPa SE 9.3 km/h 5.8 km/h 87 % 0 mm
20:34 8.9 °C 6.2 °C 1025.6 hPa SE 8 km/h 5.6 km/h 83 % 0 mm
20:39 9 °C 6.3 °C 1025.6 hPa SE 3.2 km/h 3.1 km/h 83 % 0 mm
20:44 9 °C 6.3 °C 1025.6 hPa SE 3.2 km/h 0.8 km/h 83 % 0 mm
20:49 8.9 °C 6.2 °C 1025.6 hPa SE 5.6 km/h 3.1 km/h 83 % 0 mm
20:54 8.8 °C 6.1 °C 1025.6 hPa SE 6.4 km/h 3.9 km/h 83 % 0 mm
20:59 8.8 °C 6.1 °C 1025.6 hPa SE 7.4 km/h 5 km/h 83 % 0 mm
21:04 8.8 °C 6.1 °C 1025.6 hPa SE 5.6 km/h 3.4 km/h 83 % 0 mm
21:09 8.8 °C 6.1 °C 1025.6 hPa SE 3.7 km/h 1.9 km/h 83 % 0 mm
21:14 8.7 °C 6 °C 1025.6 hPa SE 3.7 km/h 2.4 km/h 83 % 0 mm
21:19 8.7 °C 6 °C 1025.6 hPa SE 6.4 km/h 2.6 km/h 83 % 0 mm
21:24 8.6 °C 5.9 °C 1025.6 hPa SE 3.7 km/h 1.4 km/h 83 % 0 mm
21:29 8.6 °C 5.8 °C 1025.6 hPa SE 5.6 km/h 2.1 km/h 83 % 0 mm
21:34 8.4 °C 5.9 °C 1025.6 hPa SE 5.6 km/h 3.1 km/h 84 % 0 mm
21:39 8.4 °C 5.8 °C 1025.6 hPa SE 5.6 km/h 3.1 km/h 84 % 0 mm
21:44 8.3 °C 5.8 °C 1025.6 hPa SE 5.6 km/h 3.2 km/h 84 % 0 mm
21:49 8.3 °C 5.8 °C 1025.6 hPa SE 3.7 km/h 1.9 km/h 84 % 0 mm
21:54 8.3 °C 5.7 °C 1025.6 hPa SE 3.7 km/h 0.6 km/h 84 % 0 mm
21:59 8.2 °C 5.8 °C 1025.6 hPa SE 3.7 km/h 0.8 km/h 85 % 0 mm
22:04 8.1 °C 5.7 °C 1025.6 hPa SE 5.6 km/h 3.9 km/h 85 % 0 mm
22:09 8.1 °C 5.7 °C 1025.6 hPa SE 8 km/h 4.3 km/h 85 % 0 mm
22:14 8.1 °C 5.7 °C 1025.6 hPa SE 5.6 km/h 2.7 km/h 85 % 0 mm
22:19 8.2 °C 5.8 °C 1025.3 hPa SE 6.4 km/h 6.1 km/h 85 % 0 mm
22:24 8.4 °C 5.8 °C 1025.3 hPa SE 3.7 km/h 0.8 km/h 84 % 0 mm
22:29 8.4 °C 5.7 °C 1025.3 hPa SE 7.4 km/h 2.1 km/h 83 % 0 mm
22:34 8.4 °C 5.7 °C 1025.3 hPa SE 5.6 km/h 1.3 km/h 83 % 0 mm
22:39 8.3 °C 5.6 °C 1025.3 hPa SE 5.6 km/h 3.1 km/h 83 % 0 mm
22:44 8.3 °C 5.6 °C 1025.3 hPa SE 5.6 km/h 4.5 km/h 83 % 0 mm
22:49 8.2 °C 5.5 °C 1025.3 hPa SE 9.7 km/h 6.8 km/h 83 % 0 mm
22:54 8.2 °C 5.5 °C 1025.3 hPa SE 6.4 km/h 5 km/h 83 % 0 mm
22:59 8.2 °C 5.5 °C 1025.3 hPa SE 8 km/h 5.8 km/h 83 % 0 mm
23:04 8.2 °C 5.7 °C 1025.3 hPa SE 7.4 km/h 4.7 km/h 84 % 0 mm
23:09 8.2 °C 5.5 °C 1025.3 hPa SE 8 km/h 6.1 km/h 83 % 0 mm
23:14 8.2 °C 5.7 °C 1025.3 hPa SE 11.1 km/h 6.8 km/h 84 % 0 mm
23:19 8.2 °C 5.7 °C 1025.3 hPa SE 11.1 km/h 8.2 km/h 84 % 0 mm
23:24 8.3 °C 5.7 °C 1024.9 hPa SE 11.1 km/h 11.4 km/h 84 % 0 mm
23:29 8.6 °C 5.8 °C 1025.3 hPa SE 9.3 km/h 5.3 km/h 83 % 0 mm
23:34 8.7 °C 5.8 °C 1025.3 hPa SE 3.7 km/h 1.6 km/h 82 % 0 mm
23:39 8.5 °C 5.6 °C 1024.9 hPa SE 1.9 km/h   82 % 0 mm
23:44 8.4 °C 5.6 °C 1024.9 hPa SE 1.6 km/h 1.4 km/h 82 % 0 mm
23:49 8.4 °C 5.5 °C 1024.9 hPa SE 1.6 km/h 3.7 km/h 82 % 0 mm
23:54 8.3 °C 5.4 °C 1024.9 hPa SE 7.4 km/h 4.7 km/h 82 % 0 mm
23:59 8.2 °C 5.3 °C 1024.9 hPa SE 7.4 km/h 2.1 km/h 82 % 0 mm
Ararat Weather
Compliments of Weather Underground - 2.25 mb
Click here to send mail.


ABOUT

Live weather data from Ararat, Victoria, Australia, 3377
Data uploaded from Cumulus every 5 minutes to Weather Underground.
This site then downloads the raw data for formatting and display.
Metric and imperial data can be displayed. Graphs and historical data available.
Includes Sun and Moon times and rain image live from BOM.

Check out Ararat Weather on Facebook, Twitter and Google +

Help support ongoing costs by checking out the ads





Follow @AraratWeather